createdAt,value
2018-05-04T00:00:34.750Z,51.96
2018-05-04T00:03:39.060Z,52.04
2018-05-04T00:06:43.940Z,51.59
2018-05-04T00:09:47.290Z,51.75
2018-05-04T00:12:50.724Z,51.87
2018-05-04T00:15:54.102Z,51.92
2018-05-04T00:18:57.326Z,51.87
2018-05-04T00:22:00.734Z,51.43
2018-05-04T00:25:03.915Z,51.70
2018-05-04T00:28:07.223Z,51.69
2018-05-04T00:31:10.483Z,51.57
2018-05-04T00:34:14.804Z,51.47
2018-05-04T00:37:18.051Z,51.76
2018-05-04T00:40:21.432Z,51.85
2018-05-04T00:43:24.793Z,51.88
2018-05-04T00:46:28.088Z,52.14
2018-05-04T00:49:31.384Z,52.43
2018-05-04T00:52:34.728Z,52.64
2018-05-04T00:55:38.089Z,52.36
2018-05-04T00:58:41.434Z,52.36
2018-05-04T01:01:45.600Z,52.38
2018-05-04T01:04:48.909Z,52.53
2018-05-04T01:07:52.226Z,52.16
2018-05-04T01:10:55.380Z,52.38
2018-05-04T01:13:58.801Z,52.39
2018-05-04T01:17:02.105Z,52.81
2018-05-04T01:20:05.464Z,52.69
2018-05-04T01:23:08.713Z,52.97
2018-05-04T01:26:11.987Z,53.70
2018-05-04T01:29:15.387Z,53.81
2018-05-04T01:32:18.685Z,53.31
2018-05-04T01:35:21.980Z,53.58
2018-05-04T01:38:25.379Z,53.11
2018-05-04T01:41:28.679Z,53.40
2018-05-04T01:44:31.922Z,53.40
2018-05-04T01:47:35.271Z,53.55
2018-05-04T01:50:38.708Z,53.13
2018-05-04T01:53:42.551Z,53.53
2018-05-04T01:56:45.828Z,53.87
2018-05-04T01:59:49.116Z,53.50
2018-05-04T02:02:52.428Z,53.86
2018-05-04T02:05:55.763Z,53.94
2018-05-04T02:08:59.093Z,53.85
2018-05-04T02:12:02.293Z,53.74
2018-05-04T02:15:05.575Z,53.67
2018-05-04T02:18:08.950Z,53.66
2018-05-04T02:21:12.740Z,53.64
2018-05-04T02:24:15.987Z,53.53
2018-05-04T02:27:19.296Z,53.26
2018-05-04T02:30:22.659Z,53.93
2018-05-04T02:33:25.960Z,54.46
2018-05-04T02:36:29.346Z,54.86
2018-05-04T02:39:32.656Z,54.93
2018-05-04T02:42:35.956Z,54.61
2018-05-04T02:45:39.310Z,54.68
2018-05-04T02:48:43.671Z,55.35
2018-05-04T02:51:46.944Z,55.40
2018-05-04T02:54:50.195Z,55.55
2018-05-04T02:57:53.504Z,55.81
2018-05-04T03:00:56.756Z,56.16
2018-05-04T03:04:00.180Z,56.28
2018-05-04T03:07:03.564Z,56.73
2018-05-04T03:10:06.977Z,56.88
2018-05-04T03:13:10.309Z,57.23
2018-05-04T03:16:14.286Z,57.53
2018-05-04T03:19:17.511Z,57.88
2018-05-04T03:22:20.866Z,57.65
2018-05-04T03:25:24.164Z,57.73
2018-05-04T03:28:27.477Z,57.97
2018-05-04T03:31:30.860Z,57.68
2018-05-04T03:34:34.157Z,57.72
2018-05-04T03:37:37.399Z,57.35
2018-05-04T03:40:40.795Z,57.57
2018-05-04T03:43:45.227Z,57.60
2018-05-04T03:46:48.423Z,57.57
2018-05-04T03:49:51.771Z,57.35
2018-05-04T03:52:55.118Z,57.43
2018-05-04T03:55:58.419Z,57.03
2018-05-04T04:00:11.575Z,57.12
2018-05-04T04:04:21.971Z,58.29
2018-05-04T04:07:25.372Z,57.79
2018-05-04T04:10:28.672Z,57.81
2018-05-04T04:13:31.961Z,58.44
2018-05-04T04:16:35.368Z,59.02
2018-05-04T04:19:38.770Z,58.91
2018-05-04T04:22:42.647Z,58.77
2018-05-04T04:25:45.975Z,59.39
2018-05-04T04:28:49.318Z,59.57
2018-05-04T04:31:52.676Z,59.72
2018-05-04T04:34:56.065Z,59.41
2018-05-04T04:37:59.383Z,59.53
2018-05-04T04:41:02.660Z,59.69
2018-05-04T04:44:06.059Z,59.26
2018-05-04T04:47:09.306Z,59.03
2018-05-04T04:50:13.954Z,59.43
2018-05-04T04:53:17.237Z,59.72
2018-05-04T04:56:20.587Z,59.62
2018-05-04T04:59:23.759Z,59.96
2018-05-04T05:02:44.256Z,60.15
2018-05-04T05:05:47.535Z,60.24
2018-05-04T05:08:50.870Z,60.23
2018-05-04T05:11:54.247Z,59.32
2018-05-04T05:14:57.712Z,59.39
2018-05-04T05:18:01.002Z,59.09
2018-05-04T05:21:04.529Z,58.55
2018-05-04T05:24:07.843Z,59.02
2018-05-04T05:27:12.057Z,59.56
2018-05-04T05:30:15.395Z,58.51
2018-05-04T05:33:18.791Z,58.44
2018-05-04T05:36:22.109Z,58.40
2018-05-04T05:39:25.307Z,58.17
2018-05-04T05:42:28.668Z,58.70
2018-05-04T05:45:31.889Z,58.22
2018-05-04T05:48:35.247Z,57.67
2018-05-04T05:51:38.600Z,57.76
2018-05-04T05:54:41.917Z,57.42
2018-05-04T05:57:45.201Z,57.46
2018-05-04T06:00:49.889Z,57.79
2018-05-04T06:03:53.231Z,57.55
2018-05-04T06:06:56.584Z,57.66
2018-05-04T06:09:59.849Z,57.16
2018-05-04T06:13:03.219Z,56.81
2018-05-04T06:16:06.298Z,56.58
2018-05-04T06:19:10.630Z,56.32
2018-05-04T06:22:14.029Z,55.08
2018-05-04T06:25:18.029Z,55.36
2018-05-04T06:28:21.279Z,55.63
2018-05-04T06:31:24.564Z,54.56
2018-05-04T06:34:27.915Z,54.79
2018-05-04T06:37:31.157Z,55.21
2018-05-04T06:40:34.521Z,54.52
2018-05-04T06:43:37.815Z,54.50
2018-05-04T06:46:42.118Z,54.11
2018-05-04T06:49:45.686Z,53.58
2018-05-04T06:52:49.097Z,54.08
2018-05-04T06:55:52.249Z,53.44
2018-05-04T06:58:55.567Z,53.67
2018-05-04T07:01:59.201Z,53.25
2018-05-04T07:05:02.951Z,52.79
2018-05-04T07:08:06.360Z,52.83
2018-05-04T07:11:09.847Z,52.27
2018-05-04T07:14:13.243Z,52.62
2018-05-04T07:17:16.976Z,52.92
2018-05-04T07:20:20.508Z,52.27
2018-05-04T07:23:23.885Z,51.23
2018-05-04T07:26:28.357Z,50.87
2018-05-04T07:29:31.580Z,50.93
2018-05-04T07:32:34.820Z,50.99
2018-05-04T07:35:38.805Z,51.13
2018-05-04T07:38:42.153Z,50.93
2018-05-04T07:41:46.167Z,51.04
2018-05-04T07:44:49.439Z,50.10
2018-05-04T07:47:52.820Z,49.96
2018-05-04T07:50:56.060Z,50.03
2018-05-04T07:53:59.407Z,49.16
2018-05-04T07:57:02.660Z,49.26
2018-05-04T08:00:05.931Z,48.99
2018-05-04T08:03:09.246Z,49.32
2018-05-04T08:06:12.459Z,49.31
2018-05-04T08:09:16.399Z,48.44
2018-05-04T08:12:19.790Z,48.12
2018-05-04T08:15:22.991Z,48.35
2018-05-04T08:18:26.301Z,47.76
2018-05-04T08:21:29.488Z,48.29
2018-05-04T08:24:32.876Z,48.65
2018-05-04T08:27:36.206Z,47.65
2018-05-04T08:30:39.546Z,48.23
2018-05-04T08:33:42.880Z,48.47
2018-05-04T08:36:46.100Z,47.16
2018-05-04T08:39:49.332Z,47.40
2018-05-04T08:42:52.718Z,47.52
2018-05-04T08:45:55.982Z,47.12
2018-05-04T08:48:59.329Z,46.84
2018-05-04T08:52:02.683Z,46.53
2018-05-04T08:55:06.064Z,46.54
2018-05-04T08:58:09.454Z,46.81
2018-05-04T09:01:12.688Z,45.82
2018-05-04T09:04:17.040Z,45.41
2018-05-04T09:07:20.396Z,45.45
2018-05-04T09:10:23.792Z,45.71
2018-05-04T09:13:26.976Z,45.32
2018-05-04T09:16:30.360Z,45.44
2018-05-04T09:19:33.577Z,44.95
2018-05-04T09:22:36.925Z,45.84
2018-05-04T09:25:40.183Z,45.16
2018-05-04T09:28:43.411Z,45.69
2018-05-04T09:31:47.771Z,45.10
2018-05-04T09:34:53.404Z,44.93
2018-05-04T09:37:56.736Z,44.84
2018-05-04T09:41:00.215Z,44.33
2018-05-04T09:44:03.551Z,44.56
2018-05-04T09:50:16.087Z,43.00
2018-05-04T09:53:20.248Z,43.03
2018-05-04T09:56:23.725Z,43.77
2018-05-04T09:59:27.127Z,43.65
2018-05-04T10:02:30.464Z,42.63
2018-05-04T10:05:33.737Z,43.18
2018-05-04T10:08:36.895Z,43.06
2018-05-04T10:11:40.325Z,42.94
2018-05-04T10:14:43.710Z,43.35
2018-05-04T10:17:48.155Z,43.62
2018-05-04T10:20:51.524Z,43.10
2018-05-04T10:23:54.925Z,42.97
2018-05-04T10:26:58.215Z,43.42
2018-05-04T10:30:02.167Z,43.15
2018-05-04T10:33:05.675Z,41.54
2018-05-04T10:36:09.257Z,41.31
2018-05-04T10:39:13.181Z,40.89
2018-05-04T10:42:18.164Z,40.77
2018-05-04T10:45:21.726Z,40.56
2018-05-04T10:48:25.360Z,40.58
2018-05-04T10:51:29.233Z,39.73
2018-05-04T10:54:33.255Z,39.27
2018-05-04T10:57:36.782Z,39.46
2018-05-04T11:00:40.388Z,39.64
2018-05-04T11:03:44.371Z,39.55
2018-05-04T11:06:48.844Z,39.04
2018-05-04T11:09:52.402Z,39.07
2018-05-04T11:12:56.939Z,39.00
2018-05-04T11:16:00.560Z,38.98
2018-05-04T11:19:04.378Z,39.89
2018-05-04T11:22:08.438Z,39.12
2018-05-04T11:25:12.421Z,37.54
2018-05-04T11:28:16.493Z,38.71
2018-05-04T11:31:21.281Z,38.25
2018-05-04T11:34:24.663Z,38.28
2018-05-04T11:37:28.554Z,37.94
2018-05-04T11:40:32.172Z,38.02
2018-05-04T11:43:36.153Z,37.89
2018-05-04T11:46:39.891Z,37.87
2018-05-04T11:49:43.635Z,37.32
2018-05-04T11:52:48.190Z,37.46
2018-05-04T11:55:51.469Z,37.74
2018-05-04T11:58:54.841Z,37.12
2018-05-04T12:01:58.185Z,37.19
2018-05-04T12:05:01.468Z,36.99
2018-05-04T12:08:04.756Z,36.39
2018-05-04T12:11:08.053Z,37.29
2018-05-04T12:14:11.416Z,36.86
2018-05-04T12:17:14.747Z,35.74
2018-05-04T12:20:18.940Z,36.49
2018-05-04T12:23:22.183Z,35.11
2018-05-04T12:26:25.513Z,36.17
2018-05-04T12:29:28.814Z,35.59
2018-05-04T12:32:32.051Z,35.67
2018-05-04T12:35:36.427Z,36.21
2018-05-04T12:38:39.863Z,35.01
2018-05-04T12:41:43.079Z,36.27
2018-05-04T12:44:46.435Z,35.65
2018-05-04T12:47:49.607Z,36.46
2018-05-04T12:50:53.731Z,36.31
2018-05-04T12:53:56.959Z,36.09
2018-05-04T12:57:00.229Z,35.35
2018-05-04T13:00:03.669Z,35.51
2018-05-04T13:03:08.190Z,35.75
2018-05-04T13:06:11.559Z,35.72
2018-05-04T13:09:14.816Z,35.75
2018-05-04T13:12:17.987Z,35.83
2018-05-04T13:15:21.315Z,35.04
2018-05-04T13:18:24.493Z,34.08
2018-05-04T13:21:28.733Z,34.66
2018-05-04T13:24:32.086Z,33.73
2018-05-04T13:27:35.354Z,33.77
2018-05-04T13:30:38.845Z,33.74
2018-05-04T13:33:42.329Z,33.80
2018-05-04T13:36:45.647Z,33.98
2018-05-04T13:39:48.981Z,33.76
2018-05-04T13:42:52.357Z,33.28
2018-05-04T13:45:55.756Z,33.25
2018-05-04T13:48:58.984Z,32.86
2018-05-04T13:52:02.345Z,33.88
2018-05-04T13:55:05.570Z,33.29
2018-05-04T13:58:08.954Z,33.56
2018-05-04T14:01:13.422Z,33.83
2018-05-04T14:04:17.800Z,34.16
2018-05-04T14:07:21.118Z,33.55
2018-05-04T14:10:24.492Z,32.77
2018-05-04T14:13:27.676Z,33.35
2018-05-04T14:16:30.995Z,33.94
2018-05-04T14:19:34.276Z,33.42
2018-05-04T14:22:37.584Z,33.30
2018-05-04T14:25:40.877Z,32.89
2018-05-04T14:28:44.268Z,32.97
2018-05-04T14:31:48.284Z,32.61
2018-05-04T14:34:51.787Z,31.96
2018-05-04T14:37:54.886Z,31.91
2018-05-04T14:40:58.206Z,31.39
2018-05-04T14:44:01.472Z,30.87
2018-05-04T14:47:04.751Z,31.44
2018-05-04T14:50:08.015Z,32.04
2018-05-04T14:53:11.324Z,32.18
2018-05-04T14:56:15.051Z,32.23
2018-05-04T14:59:18.329Z,32.16
2018-05-04T15:02:21.540Z,32.79
2018-05-04T15:05:24.867Z,31.96
2018-05-04T15:08:28.208Z,32.00
2018-05-04T15:11:31.447Z,31.82
2018-05-04T15:14:34.829Z,31.37
2018-05-04T15:17:38.177Z,31.83
2018-05-04T15:20:41.948Z,31.47
2018-05-04T15:23:46.192Z,30.89
2018-05-04T15:26:49.661Z,31.01
2018-05-04T15:29:52.996Z,31.10
2018-05-04T15:32:56.300Z,31.15
2018-05-04T15:35:59.748Z,31.87
2018-05-04T15:39:03.148Z,31.27
2018-05-04T15:42:06.482Z,31.75
2018-05-04T15:45:09.890Z,31.75
2018-05-04T15:48:17.423Z,30.98
2018-05-04T15:52:24.663Z,30.70
2018-05-04T15:55:28.020Z,31.10
2018-05-04T15:58:31.386Z,32.06
2018-05-04T16:01:34.728Z,31.05
2018-05-04T16:04:38.046Z,31.25
2018-05-04T16:07:41.268Z,30.58
2018-05-04T16:10:44.504Z,31.01
2018-05-04T16:13:49.428Z,31.94
2018-05-04T16:16:52.811Z,31.31
2018-05-04T16:19:56.055Z,32.02
2018-05-04T16:22:59.418Z,32.66
2018-05-04T16:26:02.759Z,32.89
2018-05-04T16:29:07.689Z,32.92
2018-05-04T16:32:10.912Z,32.90
2018-05-04T16:35:14.136Z,32.51
2018-05-04T16:38:17.434Z,32.21
2018-05-04T16:41:20.753Z,32.35
2018-05-04T16:44:24.064Z,32.43
2018-05-04T16:47:27.457Z,32.75
2018-05-04T16:50:30.883Z,32.79
2018-05-04T16:53:34.726Z,32.91
2018-05-04T16:56:38.145Z,32.77
2018-05-04T16:59:41.576Z,32.95
2018-05-04T17:02:44.926Z,33.05
2018-05-04T17:05:48.360Z,33.41
2018-05-04T17:08:51.801Z,33.69
2018-05-04T17:11:55.361Z,33.49
2018-05-04T17:14:58.685Z,34.00
2018-05-04T17:18:02.100Z,34.08
2018-05-04T17:21:05.303Z,34.83
2018-05-04T17:24:09.094Z,34.33
2018-05-04T17:27:12.447Z,34.50
2018-05-04T17:30:15.668Z,34.30
2018-05-04T17:33:19.020Z,34.58
2018-05-04T17:36:23.382Z,34.64
2018-05-04T17:39:26.765Z,34.68
2018-05-04T17:42:30.220Z,34.76
2018-05-04T17:45:33.571Z,35.06
2018-05-04T17:48:36.951Z,35.17
2018-05-04T17:51:41.136Z,35.33
2018-05-04T17:54:44.459Z,35.22
2018-05-04T17:57:47.826Z,35.50
2018-05-04T18:00:51.157Z,35.62
2018-05-04T18:03:54.380Z,35.50
2018-05-04T18:06:57.547Z,35.73
2018-05-04T18:10:00.888Z,35.42
2018-05-04T18:13:04.248Z,35.26
2018-05-04T18:16:07.639Z,35.49
2018-05-04T18:19:10.903Z,35.70
2018-05-04T18:22:14.127Z,36.15
2018-05-04T18:25:17.506Z,36.19
2018-05-04T18:28:21.579Z,36.18
2018-05-04T18:31:24.842Z,36.51
2018-05-04T18:34:28.152Z,36.72
2018-05-04T18:37:31.548Z,37.10
2018-05-04T18:40:34.943Z,37.26
2018-05-04T18:43:38.299Z,37.40
2018-05-04T18:46:43.295Z,37.31
2018-05-04T18:49:46.700Z,37.56
2018-05-04T18:52:50.106Z,37.74
2018-05-04T18:55:53.454Z,37.90
2018-05-04T18:58:56.734Z,37.78
2018-05-04T19:01:59.990Z,37.47
2018-05-04T19:05:03.242Z,37.55
2018-05-04T19:08:06.586Z,37.49
2018-05-04T19:11:09.992Z,37.41
2018-05-04T19:14:14.141Z,37.64
2018-05-04T19:17:17.498Z,37.52
2018-05-04T19:20:20.863Z,37.67
2018-05-04T19:23:25.220Z,37.94
2018-05-04T19:26:28.594Z,38.15
2018-05-04T19:29:31.986Z,38.03
2018-05-04T19:32:35.279Z,38.27
2018-05-04T19:35:38.695Z,38.15
2018-05-04T19:38:42.045Z,38.12
2018-05-04T19:41:45.400Z,38.66
2018-05-04T19:44:48.875Z,38.67
2018-05-04T19:47:52.388Z,38.82
2018-05-04T19:50:55.663Z,38.84
2018-05-04T19:53:58.856Z,38.67
2018-05-04T19:57:02.222Z,39.08
2018-05-04T20:00:06.577Z,39.18
2018-05-04T20:03:09.950Z,39.09
2018-05-04T20:06:13.311Z,39.92
2018-05-04T20:09:16.505Z,40.29
2018-05-04T20:12:20.232Z,41.30
2018-05-04T20:15:23.589Z,41.57
2018-05-04T20:18:26.812Z,41.46
2018-05-04T20:21:30.083Z,42.79
2018-05-04T20:24:33.484Z,43.07
2018-05-04T20:27:36.804Z,43.15
2018-05-04T20:30:40.210Z,43.23
2018-05-04T20:33:43.549Z,43.66
2018-05-04T20:36:46.804Z,43.42
2018-05-04T20:39:52.604Z,43.61
2018-05-04T20:42:55.957Z,43.33
2018-05-04T20:45:59.368Z,43.88
2018-05-04T20:49:04.708Z,44.44
2018-05-04T20:52:07.983Z,44.38
2018-05-04T20:55:12.314Z,44.04
2018-05-04T20:58:15.567Z,44.34
2018-05-04T21:01:19.505Z,43.89
2018-05-04T21:04:22.930Z,44.08
2018-05-04T21:07:26.321Z,44.19
2018-05-04T21:10:29.648Z,42.79
2018-05-04T21:13:32.928Z,42.55
2018-05-04T21:16:36.324Z,42.17
2018-05-04T21:19:39.627Z,41.77
2018-05-04T21:22:42.920Z,42.07
2018-05-04T21:25:47.246Z,41.81
2018-05-04T21:28:51.591Z,41.82
2018-05-04T21:31:54.975Z,42.08
2018-05-04T21:34:58.271Z,41.93
2018-05-04T21:38:01.648Z,42.49
2018-05-04T21:41:04.993Z,42.55
2018-05-04T21:44:08.203Z,42.88
2018-05-04T21:47:11.469Z,43.13
2018-05-04T21:50:14.881Z,42.38
2018-05-04T21:53:18.243Z,42.22
2018-05-04T21:56:22.475Z,42.28
2018-05-04T21:59:25.785Z,42.13
2018-05-04T22:02:29.064Z,42.40
2018-05-04T22:05:32.404Z,42.44
2018-05-04T22:08:35.776Z,42.44
2018-05-04T22:11:39.078Z,42.58
2018-05-04T22:14:42.475Z,42.39
2018-05-04T22:17:45.757Z,42.84
2018-05-04T22:20:49.041Z,42.64
2018-05-04T22:23:52.659Z,42.84
2018-05-04T22:26:55.956Z,42.79
2018-05-04T22:30:00.272Z,43.00
2018-05-04T22:33:03.710Z,43.16
2018-05-04T22:36:07.102Z,43.07
2018-05-04T22:39:10.366Z,43.36
2018-05-04T22:42:13.767Z,43.15
2018-05-04T22:45:17.104Z,43.15
2018-05-04T22:48:20.999Z,43.27
2018-05-04T22:51:24.395Z,43.45
2018-05-04T22:54:27.593Z,43.17
2018-05-04T22:57:31.836Z,43.21
2018-05-04T23:00:35.222Z,43.46
2018-05-04T23:03:38.531Z,43.40
2018-05-04T23:06:41.696Z,42.96
2018-05-04T23:09:45.085Z,42.89
2018-05-04T23:12:48.324Z,42.95
2018-05-04T23:15:52.728Z,43.30
2018-05-04T23:18:56.010Z,43.25
2018-05-04T23:21:59.407Z,43.25
2018-05-04T23:25:02.747Z,43.36
2018-05-04T23:28:06.146Z,43.36
2018-05-04T23:31:09.495Z,43.52
2018-05-04T23:34:12.783Z,43.68
2018-05-04T23:37:16.187Z,43.88
2018-05-04T23:40:19.518Z,43.73
2018-05-04T23:43:23.031Z,43.69
2018-05-04T23:46:26.337Z,44.20
2018-05-04T23:49:29.699Z,44.11
2018-05-04T23:52:33.092Z,43.99
2018-05-04T23:55:36.512Z,44.21
2018-05-04T23:58:39.796Z,44.46
